createdAt,value
2022-10-19T00:03:41.610Z,101060.72
2022-10-19T00:08:44.582Z,101056.22
2022-10-19T00:13:46.995Z,101061.13
2022-10-19T00:18:49.280Z,101054.19
2022-10-19T00:23:51.659Z,101048.50
2022-10-19T00:28:55.438Z,101058.41
2022-10-19T00:33:58.986Z,101032.41
2022-10-19T00:39:02.456Z,101036.53
2022-10-19T00:44:10.578Z,101045.59
2022-10-19T00:49:27.778Z,101042.50
2022-10-19T00:54:32.675Z,101041.31
2022-10-19T00:59:35.271Z,101035.97
2022-10-19T01:04:41.633Z,101038.63
2022-10-19T01:09:43.978Z,101030.13
2022-10-19T01:15:17.111Z,101028.72
2022-10-19T01:20:51.500Z,101042.69
2022-10-19T01:26:25.841Z,101029.66
2022-10-19T01:31:46.368Z,101024.69
2022-10-19T01:37:31.031Z,101015.97
2022-10-19T01:42:59.269Z,101011.75
2022-10-19T01:48:18.893Z,101005.31
2022-10-19T01:53:21.883Z,101006.22
2022-10-19T01:58:33.730Z,101005.31
2022-10-19T02:03:36.990Z,100985.28
2022-10-19T02:08:43.929Z,100996.09
2022-10-19T02:13:47.304Z,100993.34
2022-10-19T02:18:51.502Z,100998.78
2022-10-19T02:23:54.307Z,101000.22
2022-10-19T02:28:57.121Z,100994.88
2022-10-19T02:33:59.507Z,100986.97
2022-10-19T02:39:02.006Z,100985.41
2022-10-19T02:44:16.041Z,100993.34
2022-10-19T02:49:18.738Z,100988.94
2022-10-19T02:54:21.036Z,100977.81
2022-10-19T02:59:24.337Z,100976.69
2022-10-19T03:04:26.693Z,100977.50
2022-10-19T03:09:28.936Z,100966.50
2022-10-19T03:14:31.203Z,100977.31
2022-10-19T03:19:33.793Z,100979.41
2022-10-19T03:24:36.103Z,100978.22
2022-10-19T03:29:38.391Z,100975.25
2022-10-19T03:34:40.673Z,100975.50
2022-10-19T03:39:43.393Z,100980.91
2022-10-19T03:44:45.657Z,100978.81
2022-10-19T03:49:50.287Z,100985.63
2022-10-19T03:54:52.751Z,100981.56
2022-10-19T03:59:55.487Z,100982.84
2022-10-19T04:04:57.800Z,100983.34
2022-10-19T04:10:00.156Z,100976.22
2022-10-19T04:15:02.462Z,100972.25
2022-10-19T04:20:05.240Z,100969.38
2022-10-19T04:25:08.361Z,100975.97
2022-10-19T04:30:11.121Z,100976.06
2022-10-19T04:35:13.603Z,100972.16
2022-10-19T04:40:15.990Z,100971.00
2022-10-19T04:45:18.358Z,100979.41
2022-10-19T04:50:20.773Z,100986.91
2022-10-19T04:55:26.427Z,100979.09
2022-10-19T05:00:29.116Z,100978.28
2022-10-19T05:05:33.138Z,100977.59
2022-10-19T05:10:35.470Z,100974.94
2022-10-19T05:15:37.702Z,100965.78
2022-10-19T05:20:40.023Z,100986.97
2022-10-19T05:25:42.299Z,100994.16
2022-10-19T05:30:48.808Z,100993.09
2022-10-19T05:35:51.299Z,100993.09
2022-10-19T05:40:53.870Z,100990.25
2022-10-19T05:45:56.267Z,100997.31
2022-10-19T05:50:58.525Z,100999.19
2022-10-19T05:56:00.801Z,101007.94
2022-10-19T06:01:03.823Z,101005.28
2022-10-19T06:06:07.465Z,101018.16
2022-10-19T06:11:11.129Z,101015.75
2022-10-19T06:16:15.362Z,101021.03
2022-10-19T06:21:21.118Z,101033.97
2022-10-19T06:26:23.833Z,101035.72
2022-10-19T06:31:26.167Z,101043.09
2022-10-19T06:36:30.965Z,101048.66
2022-10-19T06:41:34.375Z,101053.25
2022-10-19T06:46:53.198Z,101049.06
2022-10-19T06:51:55.532Z,101067.78
2022-10-19T06:56:58.019Z,101075.72
2022-10-19T07:02:00.287Z,101087.16
2022-10-19T07:07:02.666Z,101088.16
2022-10-19T07:12:05.188Z,101100.00
2022-10-19T07:17:08.158Z,101110.97
2022-10-19T07:22:10.992Z,101120.00
2022-10-19T07:27:14.983Z,101127.78
2022-10-19T07:32:17.312Z,101134.34
2022-10-19T07:37:19.554Z,101142.91
2022-10-19T07:47:29.058Z,101146.28
2022-10-19T07:52:34.382Z,101150.41
2022-10-19T07:57:40.704Z,101171.53
2022-10-19T08:03:00.135Z,101166.91
2022-10-19T08:08:07.518Z,101174.16
2022-10-19T08:13:09.814Z,101175.94
2022-10-19T08:18:12.135Z,101187.56
2022-10-19T08:23:14.356Z,101191.84
2022-10-19T08:28:16.686Z,101197.63
2022-10-19T08:33:19.011Z,101209.59
2022-10-19T08:38:21.642Z,101213.63
2022-10-19T08:43:33.273Z,101213.78
2022-10-19T08:48:39.314Z,101215.81
2022-10-19T08:53:44.383Z,101216.84
2022-10-19T08:58:58.556Z,101216.06
2022-10-19T09:04:07.051Z,101224.34
2022-10-19T09:09:13.017Z,101219.38
2022-10-19T09:14:48.274Z,101228.94
2022-10-19T09:19:50.540Z,101231.28
2022-10-19T09:24:55.438Z,101239.28
2022-10-19T09:29:59.701Z,101249.47
2022-10-19T09:35:05.025Z,101260.97
2022-10-19T09:40:10.387Z,101254.94
2022-10-19T09:45:18.393Z,101267.41
2022-10-19T09:50:22.867Z,101265.19
2022-10-19T09:55:44.254Z,101269.63
2022-10-19T10:00:50.711Z,101266.31
2022-10-19T10:05:53.983Z,101271.94
2022-10-19T10:11:26.431Z,101281.06
2022-10-19T10:16:30.521Z,101288.28
2022-10-19T10:21:37.379Z,101293.31
2022-10-19T10:26:42.364Z,101298.19
2022-10-19T10:31:44.894Z,101303.03
2022-10-19T10:36:50.688Z,101302.47
2022-10-19T10:41:53.178Z,101291.13
2022-10-19T10:47:00.013Z,101296.72
2022-10-19T10:52:07.277Z,101310.53
2022-10-19T10:57:11.736Z,101326.13
2022-10-19T11:02:36.086Z,101324.97
2022-10-19T11:07:42.531Z,101312.47
2022-10-19T11:12:48.507Z,101316.19
2022-10-19T11:18:10.986Z,101326.06
2022-10-19T11:23:39.124Z,101321.94
2022-10-19T11:28:59.753Z,101325.44
2022-10-19T11:34:16.298Z,101312.03
2022-10-19T11:39:24.564Z,101317.16
2022-10-19T11:44:53.902Z,101319.09
2022-10-19T11:55:27.381Z,101330.75
2022-10-19T12:00:39.046Z,101328.13
2022-10-19T12:06:09.334Z,101328.63
2022-10-19T12:11:40.368Z,101323.81
2022-10-19T12:16:45.117Z,101342.75
2022-10-19T12:21:48.326Z,101345.16
2022-10-19T12:26:52.063Z,101353.03
2022-10-19T12:31:55.166Z,101341.41
2022-10-19T12:36:59.095Z,101362.88
2022-10-19T12:42:16.461Z,101357.41
2022-10-19T12:47:20.751Z,101354.28
2022-10-19T12:52:45.301Z,101361.44
2022-10-19T12:57:49.164Z,101370.41
2022-10-19T13:03:04.510Z,101363.50
2022-10-19T13:08:10.623Z,101367.16
2022-10-19T13:13:53.049Z,101378.81
2022-10-19T13:19:02.771Z,101375.00
2022-10-19T13:24:30.795Z,101380.25
2022-10-19T13:29:42.946Z,101385.22
2022-10-19T13:34:46.469Z,101396.88
2022-10-19T13:39:50.014Z,101394.94
2022-10-19T13:44:53.184Z,101372.81
2022-10-19T13:50:33.696Z,101414.97
2022-10-19T13:56:13.293Z,101409.75
2022-10-19T14:01:27.470Z,101421.13
2022-10-19T14:06:45.420Z,101424.63
2022-10-19T14:11:52.741Z,101426.28
2022-10-19T14:17:04.038Z,101426.91
2022-10-19T14:22:40.827Z,101436.81
2022-10-19T14:27:43.242Z,101455.81
2022-10-19T14:32:45.677Z,101447.47
2022-10-19T14:37:48.310Z,101459.69
2022-10-19T14:42:50.826Z,101464.25
2022-10-19T14:48:01.198Z,101475.94
2022-10-19T14:53:57.027Z,101485.13
2022-10-19T14:59:00.933Z,101489.84
2022-10-19T15:04:03.531Z,101486.47
2022-10-19T15:09:12.146Z,101481.84
2022-10-19T15:14:29.043Z,101493.41
2022-10-19T15:19:34.356Z,101488.00
2022-10-19T15:24:37.172Z,101488.22
2022-10-19T15:29:40.334Z,101493.22
2022-10-19T15:34:43.493Z,101504.97
2022-10-19T15:39:45.948Z,101517.59
2022-10-19T15:44:48.459Z,101511.00
2022-10-19T15:49:56.838Z,101520.63
2022-10-19T15:55:01.082Z,101500.13
2022-10-19T16:00:15.449Z,101513.81
2022-10-19T16:05:17.883Z,101526.66
2022-10-19T16:10:23.077Z,101547.88
2022-10-19T16:15:26.700Z,101551.31
2022-10-19T16:20:30.215Z,101552.03
2022-10-19T16:25:32.606Z,101549.63
2022-10-19T16:30:34.904Z,101551.38
2022-10-19T16:35:40.383Z,101568.34
2022-10-19T16:40:42.968Z,101559.34
2022-10-19T16:45:45.598Z,101575.84
2022-10-19T16:51:07.184Z,101580.53
2022-10-19T16:56:12.593Z,101574.34
2022-10-19T17:01:17.249Z,101582.06
2022-10-19T17:06:19.766Z,101584.19
2022-10-19T17:11:24.675Z,101575.25
2022-10-19T17:16:28.545Z,101601.09
2022-10-19T17:21:33.214Z,101603.97
2022-10-19T17:26:38.649Z,101603.16
2022-10-19T17:31:41.638Z,101612.06
2022-10-19T17:36:45.361Z,101593.78
2022-10-19T17:41:48.734Z,101606.66
2022-10-19T17:46:51.045Z,101603.38
2022-10-19T17:51:53.755Z,101612.13
2022-10-19T17:56:56.029Z,101609.78
2022-10-19T18:01:58.447Z,101620.78
2022-10-19T18:07:00.783Z,101602.75
2022-10-19T18:12:04.962Z,101632.25
2022-10-19T18:17:09.666Z,101627.69
2022-10-19T18:22:12.312Z,101645.56
2022-10-19T18:27:14.707Z,101647.66
2022-10-19T18:32:17.317Z,101649.69
2022-10-19T18:37:19.655Z,101649.09
2022-10-19T18:42:22.054Z,101644.28
2022-10-19T18:47:24.492Z,101660.13
2022-10-19T18:52:26.821Z,101654.28
2022-10-19T18:57:31.762Z,101649.25
2022-10-19T19:02:46.065Z,101650.47
2022-10-19T19:07:49.917Z,101660.47
2022-10-19T19:12:52.221Z,101665.25
2022-10-19T19:17:55.390Z,101671.25
2022-10-19T19:22:57.761Z,101678.88
2022-10-19T19:28:00.056Z,101666.66
2022-10-19T19:33:02.470Z,101676.66
2022-10-19T19:38:04.802Z,101671.19
2022-10-19T19:43:07.167Z,101674.13
2022-10-19T19:48:10.742Z,101677.88
2022-10-19T19:53:13.077Z,101683.22
2022-10-19T19:58:16.082Z,101686.38
2022-10-19T20:03:18.461Z,101692.81
2022-10-19T20:08:20.848Z,101695.19
2022-10-19T20:13:23.414Z,101691.53
2022-10-19T20:18:25.720Z,101703.16
2022-10-19T20:23:28.033Z,101707.09
2022-10-19T20:28:32.725Z,101722.47
2022-10-19T20:33:37.069Z,101716.38
2022-10-19T20:38:40.099Z,101717.47
2022-10-19T20:43:42.377Z,101725.56
2022-10-19T20:48:45.799Z,101722.03
2022-10-19T20:53:50.355Z,101711.97
2022-10-19T20:59:04.705Z,101712.22
2022-10-19T21:04:09.360Z,101722.78
2022-10-19T21:09:13.006Z,101720.28
2022-10-19T21:14:27.084Z,101718.88
2022-10-19T21:19:31.282Z,101711.50
2022-10-19T21:24:36.095Z,101717.88
2022-10-19T21:29:38.557Z,101713.88
2022-10-19T21:34:40.840Z,101722.47
2022-10-19T21:39:43.317Z,101723.50
2022-10-19T21:44:45.548Z,101721.88
2022-10-19T21:49:47.855Z,101719.34
2022-10-19T21:54:50.142Z,101731.34
2022-10-19T21:59:52.423Z,101721.28
2022-10-19T22:04:54.762Z,101722.50
2022-10-19T22:09:57.029Z,101720.44
2022-10-19T22:14:59.350Z,101710.50
2022-10-19T22:20:01.642Z,101727.81
2022-10-19T22:25:04.248Z,101723.94
2022-10-19T22:30:07.332Z,101724.59
2022-10-19T22:35:09.842Z,101736.72
2022-10-19T22:40:13.290Z,101742.88
2022-10-19T22:45:15.574Z,101747.59
2022-10-19T22:50:17.866Z,101750.75
2022-10-19T22:55:20.081Z,101744.16
2022-10-19T23:00:22.445Z,101758.09
2022-10-19T23:05:24.928Z,101762.53
2022-10-19T23:10:27.407Z,101773.00
2022-10-19T23:15:29.669Z,101773.34
2022-10-19T23:20:31.925Z,101773.28
2022-10-19T23:25:34.199Z,101773.97
2022-10-19T23:30:38.371Z,101776.78
2022-10-19T23:35:40.611Z,101776.31
2022-10-19T23:40:46.106Z,101777.47
2022-10-19T23:45:48.380Z,101784.66
2022-10-19T23:50:58.193Z,101780.44
2022-10-19T23:56:06.557Z,101780.44
